Portada
METAR-TAF:

METAR-TAF

Aeroports :

Al-Riyad, Aràbia Saudita

latitud: 24-56N, longitud: 046-43E, altitud: 614 m

Observació

L'informe es va fer fa 34 minuts, a les 09:00 UTC
Vent 9 kt del Sud/Sud-Oest
Temperatura 42°C
Humitat 11%
Pressió 1010 hPa
Visibilitat 10 km o més
sense núvols per sota de 1500 mi sense presència de cumulonimbus.

METAR: OERK 020900Z 20009KT CAVOK 42/05 Q1010 NOSIG

Hora: 12:34 (09:34 UTC)

Pronòstic

L'informe es va fer fa 10 hores i 34 minuts, a les 23:00 UTC
Pronòstic vàlid del 02 a les 00 UTC al 03 a les 06 UTC
Vent 6 kt del Sud
Visibilitat 10 km o més
sense núvols per sota de 1500 mi sense presència de cumulonimbus.
Evolucionant progressivament
l' 02 a les 08 UTC al 02 a les 10 UTC
Vent 12 kt del Sud-Est

TAF: OERK 012300Z 0200/0306 18006KT CAVOK BECMG 0208/0210 14012KT

Observacions i pronòstics meteorològics de més de 4000 aeroports (METAR i TAF).

Les estacions disponibles són els punts grocs i vermells al mapa.

Posi el ratolí al punt desitjat per veure el nom de l'estació.

Feu clic per veure les observacions i els pronòstics meteorològics.

Per canviar el mapa: feu clic els botons verds amb una creu de color negre per apropar; al botó verd amb un guió per allunyar la imatge; o en les fletxes verdes per a mapes adjacents.


METAR-TAF: